createdAt,value
2017-12-01T00:01:36.180Z,3.80
2017-12-01T00:04:03.641Z,4.70
2017-12-01T00:06:31.120Z,3.90
2017-12-01T00:08:58.562Z,2.63
2017-12-01T00:11:26.202Z,3.20
2017-12-01T00:13:53.758Z,2.07
2017-12-01T00:16:21.369Z,2.57
2017-12-01T00:18:48.841Z,2.43
2017-12-01T00:21:16.274Z,2.00
2017-12-01T00:23:43.762Z,2.57
2017-12-01T00:26:11.194Z,1.93
2017-12-01T00:28:38.812Z,1.37
2017-12-01T00:31:06.233Z,2.25
2017-12-01T00:33:33.686Z,2.03
2017-12-01T00:36:01.138Z,1.47
2017-12-01T00:38:28.569Z,2.60
2017-12-01T00:40:56.036Z,2.30
2017-12-01T00:43:23.481Z,2.37
2017-12-01T00:45:51.314Z,2.63
2017-12-01T00:48:18.768Z,1.67
2017-12-01T00:50:46.205Z,2.10
2017-12-01T00:53:13.697Z,2.47
2017-12-01T00:55:41.149Z,3.35
2017-12-01T00:58:08.712Z,3.40
2017-12-01T01:00:36.156Z,2.20
2017-12-01T01:03:03.601Z,3.42
2017-12-01T01:05:31.084Z,2.25
2017-12-01T01:07:58.536Z,2.10
2017-12-01T01:10:25.979Z,4.27
2017-12-01T01:12:53.428Z,2.77
2017-12-01T01:15:20.868Z,2.23
2017-12-01T01:17:48.713Z,1.73
2017-12-01T01:20:16.149Z,2.03
2017-12-01T01:22:43.582Z,2.40
2017-12-01T01:25:11.113Z,2.87
2017-12-01T01:27:38.556Z,4.43
2017-12-01T01:30:06.036Z,2.12
2017-12-01T01:32:33.485Z,2.67
2017-12-01T01:35:00.941Z,2.17
2017-12-01T01:37:28.407Z,2.60
2017-12-01T01:39:55.836Z,1.83
2017-12-01T01:42:23.328Z,2.50
2017-12-01T01:44:50.788Z,3.22
2017-12-01T01:47:18.237Z,2.20
2017-12-01T01:49:45.713Z,1.50
2017-12-01T01:52:13.168Z,3.73
2017-12-01T01:54:40.605Z,1.80
2017-12-01T01:57:08.100Z,2.57
2017-12-01T01:59:35.556Z,1.85
2017-12-01T02:02:02.998Z,1.80
2017-12-01T02:04:30.481Z,2.47
2017-12-01T02:06:57.925Z,4.50
2017-12-01T02:09:25.373Z,2.20
2017-12-01T02:11:52.810Z,2.03
2017-12-01T02:14:20.261Z,3.03
2017-12-01T02:16:47.788Z,2.62
2017-12-01T02:19:15.238Z,2.17
2017-12-01T02:21:42.697Z,1.57
2017-12-01T02:24:10.168Z,2.55
2017-12-01T02:26:37.613Z,3.35
2017-12-01T02:29:05.071Z,3.90
2017-12-01T02:31:32.517Z,4.28
2017-12-01T02:34:00.012Z,3.05
2017-12-01T02:36:27.481Z,2.83
2017-12-01T02:38:54.940Z,4.62
2017-12-01T02:41:22.379Z,3.78
2017-12-01T02:43:49.827Z,2.20
2017-12-01T02:46:17.330Z,2.92
2017-12-01T02:48:44.773Z,3.05
2017-12-01T02:51:12.237Z,3.97
2017-12-01T02:53:39.702Z,2.28
2017-12-01T02:56:07.162Z,1.47
2017-12-01T02:58:34.644Z,0.98
2017-12-01T03:01:02.089Z,3.20
2017-12-01T03:03:29.516Z,2.60
2017-12-01T03:05:56.996Z,3.47
2017-12-01T03:08:24.489Z,3.17
2017-12-01T03:10:52.142Z,2.40
2017-12-01T03:13:19.612Z,3.83
2017-12-01T03:15:47.833Z,3.85
2017-12-01T03:18:15.272Z,2.40
2017-12-01T03:20:43.824Z,4.12
2017-12-01T03:23:11.274Z,2.03
2017-12-01T03:25:38.709Z,3.55
2017-12-01T03:28:06.172Z,3.08
2017-12-01T03:30:33.623Z,2.50
2017-12-01T03:33:01.125Z,3.05
2017-12-01T03:35:28.809Z,2.67
2017-12-01T03:37:56.248Z,1.90
2017-12-01T03:40:23.685Z,3.35
2017-12-01T03:42:51.148Z,3.03
2017-12-01T03:45:18.580Z,3.53
2017-12-01T03:47:46.793Z,3.17
2017-12-01T03:50:14.577Z,2.37
2017-12-01T03:52:42.041Z,3.72
2017-12-01T03:55:09.517Z,2.62
2017-12-01T03:57:37.364Z,4.15
2017-12-01T04:00:04.832Z,2.83
2017-12-01T04:02:32.269Z,3.45
2017-12-01T04:04:59.745Z,2.10
2017-12-01T04:07:27.185Z,1.30
2017-12-01T04:09:54.625Z,2.60
2017-12-01T04:12:22.092Z,2.50
2017-12-01T04:14:49.537Z,2.70
2017-12-01T04:17:17.060Z,1.60
2017-12-01T04:19:44.524Z,2.80
2017-12-01T04:22:11.980Z,4.37
2017-12-01T04:24:39.457Z,3.85
2017-12-01T04:27:06.913Z,4.12
2017-12-01T04:29:34.355Z,3.10
2017-12-01T04:32:01.809Z,2.47
2017-12-01T04:34:29.281Z,3.35
2017-12-01T04:36:56.752Z,2.75
2017-12-01T04:39:24.232Z,3.10
2017-12-01T04:41:51.673Z,4.30
2017-12-01T04:44:19.133Z,2.62
2017-12-01T04:46:46.579Z,2.28
2017-12-01T04:49:14.040Z,3.40
2017-12-01T04:51:41.531Z,3.00
2017-12-01T04:54:08.971Z,2.80
2017-12-01T04:56:36.437Z,2.47
2017-12-01T04:59:03.897Z,2.83
2017-12-01T05:01:31.388Z,4.90
2017-12-01T05:03:58.820Z,2.13
2017-12-01T05:06:26.284Z,2.80
2017-12-01T05:08:53.745Z,3.58
2017-12-01T05:11:21.186Z,3.77
2017-12-01T05:13:48.666Z,2.97
2017-12-01T05:16:16.117Z,3.10
2017-12-01T05:18:43.604Z,3.97
2017-12-01T05:21:11.045Z,2.73
2017-12-01T05:23:38.513Z,3.73
2017-12-01T05:26:05.978Z,3.50
2017-12-01T05:28:33.417Z,4.17
2017-12-01T05:31:00.854Z,2.60
2017-12-01T05:33:28.357Z,4.27
2017-12-01T05:35:55.817Z,3.40
2017-12-01T05:38:23.280Z,4.27
2017-12-01T05:40:50.720Z,3.93
2017-12-01T05:43:18.149Z,7.30
2017-12-01T05:45:45.665Z,4.70
2017-12-01T05:48:13.120Z,4.40
2017-12-01T05:50:40.587Z,2.83
2017-12-01T05:53:08.013Z,2.87
2017-12-01T05:55:35.448Z,3.67
2017-12-01T05:58:02.960Z,3.37
2017-12-01T06:00:30.429Z,2.90
2017-12-01T06:02:57.909Z,4.33
2017-12-01T06:05:25.352Z,3.93
2017-12-01T06:07:52.797Z,6.10
2017-12-01T06:10:20.244Z,3.40
2017-12-01T06:12:47.742Z,4.50
2017-12-01T06:15:15.215Z,4.03
2017-12-01T06:17:42.656Z,3.73
2017-12-01T06:20:10.122Z,5.27
2017-12-01T06:22:37.585Z,2.27
2017-12-01T06:25:05.049Z,3.33
2017-12-01T06:27:32.521Z,3.10
2017-12-01T06:29:59.952Z,4.40
2017-12-01T06:32:27.401Z,3.07
2017-12-01T06:34:54.889Z,4.23
2017-12-01T06:37:22.348Z,3.40
2017-12-01T06:39:49.828Z,4.83
2017-12-01T06:42:17.259Z,4.33
2017-12-01T06:44:44.702Z,3.00
2017-12-01T06:47:12.160Z,3.50
2017-12-01T06:49:39.653Z,4.00
2017-12-01T06:52:07.132Z,6.90
2017-12-01T06:54:34.580Z,3.40
2017-12-01T06:57:02.006Z,5.33
2017-12-01T06:59:29.452Z,4.70
2017-12-01T07:01:56.893Z,4.43
2017-12-01T07:04:24.425Z,3.20
2017-12-01T07:06:51.849Z,3.70
2017-12-01T07:09:19.284Z,4.27
2017-12-01T07:11:46.747Z,3.77
2017-12-01T07:14:14.276Z,2.73
2017-12-01T07:16:41.743Z,4.10
2017-12-01T07:19:09.178Z,3.63
2017-12-01T07:21:36.660Z,3.60
2017-12-01T07:24:04.110Z,4.40
2017-12-01T07:26:43.285Z,3.47
2017-12-01T07:29:10.751Z,4.57
2017-12-01T07:31:38.789Z,6.00
2017-12-01T07:34:06.258Z,4.53
2017-12-01T07:36:33.800Z,6.60
2017-12-01T07:39:01.223Z,2.90
2017-12-01T07:41:28.699Z,4.10
2017-12-01T07:43:57.937Z,3.93
2017-12-01T07:46:25.618Z,3.63
2017-12-01T07:48:53.097Z,4.20
2017-12-01T07:51:20.532Z,3.73
2017-12-01T07:53:48.009Z,5.23
2017-12-01T07:56:15.469Z,3.60
2017-12-01T07:58:42.914Z,4.10
2017-12-01T08:01:10.357Z,3.10
2017-12-01T08:03:37.791Z,5.27
2017-12-01T08:06:05.261Z,3.90
2017-12-01T08:08:32.686Z,6.00
2017-12-01T08:11:00.119Z,3.67
2017-12-01T08:13:27.575Z,5.93
2017-12-01T08:16:06.696Z,4.63
2017-12-01T08:21:52.722Z,3.47
2017-12-01T08:24:31.906Z,3.70
2017-12-01T08:26:59.349Z,4.87
2017-12-01T08:29:26.805Z,4.20
2017-12-01T08:31:54.572Z,5.70
2017-12-01T08:34:22.013Z,3.13
2017-12-01T08:36:49.449Z,6.47
2017-12-01T08:39:16.905Z,7.80
2017-12-01T08:41:44.460Z,5.60
2017-12-01T08:44:12.997Z,6.10
2017-12-01T08:46:40.491Z,5.23
2017-12-01T08:49:07.917Z,5.13
2017-12-01T08:51:35.362Z,3.73
2017-12-01T08:54:02.804Z,4.73
2017-12-01T08:56:30.269Z,4.93
2017-12-01T08:58:57.710Z,5.37
2017-12-01T09:01:25.158Z,6.63
2017-12-01T09:03:52.619Z,7.50
2017-12-01T09:06:20.186Z,6.07
2017-12-01T09:08:47.933Z,5.83
2017-12-01T09:11:15.374Z,5.93
2017-12-01T09:13:42.806Z,5.37
2017-12-01T09:16:10.400Z,7.13
2017-12-01T09:18:37.836Z,7.30
2017-12-01T09:21:05.424Z,5.30
2017-12-01T09:23:32.873Z,6.43
2017-12-01T09:26:00.313Z,7.60
2017-12-01T09:28:27.741Z,7.50
2017-12-01T09:30:55.457Z,6.53
2017-12-01T09:33:24.341Z,7.83
2017-12-01T09:35:51.811Z,9.90
2017-12-01T09:38:19.246Z,6.37
2017-12-01T09:40:47.082Z,7.70
2017-12-01T09:43:14.537Z,6.73
2017-12-01T09:45:41.977Z,6.53
2017-12-01T09:48:09.418Z,6.37
2017-12-01T09:50:36.946Z,7.43
2017-12-01T09:53:04.389Z,7.67
2017-12-01T09:55:31.829Z,7.10
2017-12-01T09:57:59.284Z,6.70
2017-12-01T10:00:26.764Z,6.27
2017-12-01T10:02:54.204Z,7.17
2017-12-01T10:05:21.676Z,6.63
2017-12-01T10:07:49.126Z,6.13
2017-12-01T10:10:16.612Z,6.33
2017-12-01T10:12:44.065Z,5.87
2017-12-01T10:15:11.509Z,7.83
2017-12-01T10:17:38.988Z,7.30
2017-12-01T10:20:06.542Z,7.50
2017-12-01T10:22:34.407Z,6.80
2017-12-01T10:25:01.908Z,7.30
2017-12-01T10:27:29.364Z,6.90
2017-12-01T10:29:57.115Z,6.03
2017-12-01T10:32:24.597Z,5.70
2017-12-01T10:34:52.049Z,5.40
2017-12-01T10:37:19.516Z,6.13
2017-12-01T10:39:46.956Z,7.63
2017-12-01T10:42:14.409Z,5.90
2017-12-01T10:44:41.848Z,5.37
2017-12-01T10:47:09.756Z,8.53
2017-12-01T10:49:37.221Z,6.10
2017-12-01T10:52:04.669Z,7.27
2017-12-01T10:54:32.104Z,7.17
2017-12-01T10:56:59.601Z,8.77
2017-12-01T10:59:27.034Z,7.50
2017-12-01T11:01:54.530Z,6.40
2017-12-01T11:04:21.996Z,6.80
2017-12-01T11:06:49.430Z,6.60
2017-12-01T11:09:16.860Z,6.90
2017-12-01T11:11:44.320Z,6.10
2017-12-01T11:14:11.850Z,6.00
2017-12-01T11:16:39.302Z,5.43
2017-12-01T11:19:06.793Z,7.20
2017-12-01T11:21:34.230Z,5.90
2017-12-01T11:24:01.692Z,7.87
2017-12-01T11:26:29.166Z,6.47
2017-12-01T11:28:56.612Z,5.63
2017-12-01T11:31:24.044Z,6.90
2017-12-01T11:33:51.537Z,5.70
2017-12-01T11:36:18.972Z,7.10
2017-12-01T11:38:46.412Z,6.43
2017-12-01T11:41:14.026Z,7.00
2017-12-01T11:43:41.780Z,7.63
2017-12-01T11:46:09.221Z,7.70
2017-12-01T11:48:36.677Z,8.50
2017-12-01T11:51:04.114Z,5.87
2017-12-01T11:53:31.621Z,5.57
2017-12-01T11:55:59.085Z,6.57
2017-12-01T11:58:26.527Z,5.30
2017-12-01T12:00:54.881Z,5.63
2017-12-01T12:03:22.352Z,4.00
2017-12-01T12:05:50.166Z,4.30
2017-12-01T12:08:17.619Z,5.37
2017-12-01T12:10:45.078Z,7.10
2017-12-01T12:13:12.538Z,4.70
2017-12-01T12:15:40.010Z,6.00
2017-12-01T12:18:07.448Z,5.17
2017-12-01T12:20:34.933Z,6.27
2017-12-01T12:23:02.389Z,6.23
2017-12-01T12:25:29.820Z,4.23
2017-12-01T12:27:57.281Z,6.10
2017-12-01T12:30:24.716Z,5.10
2017-12-01T12:32:52.153Z,7.30
2017-12-01T12:35:19.620Z,8.07
2017-12-01T12:37:47.049Z,6.50
2017-12-01T12:40:14.512Z,7.47
2017-12-01T12:42:42.088Z,5.60
2017-12-01T12:45:09.552Z,4.53
2017-12-01T12:47:37.004Z,5.30
2017-12-01T12:50:04.440Z,4.47
2017-12-01T12:52:31.918Z,4.27
2017-12-01T12:54:59.350Z,3.90
2017-12-01T12:57:26.795Z,4.30
2017-12-01T12:59:54.309Z,2.97
2017-12-01T13:02:21.748Z,3.07
2017-12-01T13:04:49.210Z,3.60
2017-12-01T13:07:16.645Z,4.70
2017-12-01T13:09:44.152Z,4.57
2017-12-01T13:12:11.598Z,3.40
2017-12-01T13:14:39.029Z,4.17
2017-12-01T13:17:06.508Z,3.30
2017-12-01T13:19:33.931Z,4.97
2017-12-01T13:22:02.132Z,5.27
2017-12-01T13:24:29.570Z,3.20
2017-12-01T13:26:58.505Z,3.00
2017-12-01T13:29:25.976Z,3.87
2017-12-01T13:31:53.416Z,3.00
2017-12-01T13:34:20.858Z,4.80
2017-12-01T13:36:48.693Z,4.27
2017-12-01T13:39:16.148Z,3.70
2017-12-01T13:41:43.605Z,5.70
2017-12-01T13:44:11.040Z,4.10
2017-12-01T13:46:38.493Z,4.37
2017-12-01T13:49:05.943Z,5.70
2017-12-01T13:51:33.453Z,4.50
2017-12-01T13:54:00.912Z,4.03
2017-12-01T13:56:28.364Z,5.87
2017-12-01T13:58:55.803Z,4.87
2017-12-01T14:01:23.262Z,4.80
2017-12-01T14:03:50.720Z,4.60
2017-12-01T14:06:18.268Z,5.40
2017-12-01T14:08:45.720Z,8.00
2017-12-01T14:11:13.235Z,4.63
2017-12-01T14:13:41.035Z,4.27
2017-12-01T14:16:08.474Z,6.10
2017-12-01T14:18:36.044Z,4.33
2017-12-01T14:21:03.477Z,3.07
2017-12-01T14:23:30.945Z,3.60
2017-12-01T14:25:58.737Z,5.97
2017-12-01T14:28:26.208Z,2.80
2017-12-01T14:30:53.827Z,3.80
2017-12-01T14:33:21.525Z,2.73
2017-12-01T14:35:49.009Z,3.50
2017-12-01T14:38:16.481Z,5.23
2017-12-01T14:40:44.132Z,4.63
2017-12-01T14:43:11.601Z,4.97
2017-12-01T14:45:39.261Z,3.30
2017-12-01T14:48:06.719Z,3.97
2017-12-01T14:50:34.185Z,4.03
2017-12-01T14:53:01.624Z,5.47
2017-12-01T14:55:29.087Z,5.33
2017-12-01T14:57:56.590Z,3.87
2017-12-01T15:00:24.025Z,5.37
2017-12-01T15:02:51.461Z,3.90
2017-12-01T15:05:18.977Z,5.83
2017-12-01T15:07:46.408Z,4.27
2017-12-01T15:10:13.892Z,4.33
2017-12-01T15:12:41.331Z,4.10
2017-12-01T15:15:08.865Z,3.90
2017-12-01T15:17:36.310Z,2.93
2017-12-01T15:20:03.748Z,3.73
2017-12-01T15:22:31.208Z,3.70
2017-12-01T15:24:58.645Z,2.87
2017-12-01T15:27:26.088Z,2.67
2017-12-01T15:29:53.543Z,5.43
2017-12-01T15:32:21.105Z,3.37
2017-12-01T15:34:48.574Z,2.07
2017-12-01T15:37:16.021Z,2.40
2017-12-01T15:39:43.469Z,3.70
2017-12-01T15:42:10.905Z,3.53
2017-12-01T15:44:39.101Z,4.93
2017-12-01T15:47:06.566Z,2.60
2017-12-01T15:49:34.009Z,4.67
2017-12-01T15:52:02.244Z,5.03
2017-12-01T15:54:29.801Z,3.23
2017-12-01T15:56:57.229Z,5.50
2017-12-01T15:59:24.691Z,4.20
2017-12-01T16:01:52.133Z,3.30
2017-12-01T16:04:20.350Z,3.87
2017-12-01T16:06:47.951Z,3.90
2017-12-01T16:09:15.411Z,3.20
2017-12-01T16:11:42.840Z,2.47
2017-12-01T16:14:10.725Z,3.03
2017-12-01T16:16:38.158Z,2.93
2017-12-01T16:19:05.617Z,4.83
2017-12-01T16:21:33.057Z,2.80
2017-12-01T16:24:01.286Z,3.00
2017-12-01T16:26:28.732Z,4.37
2017-12-01T16:28:56.253Z,3.93
2017-12-01T16:31:23.784Z,3.60
2017-12-01T16:33:51.264Z,2.90
2017-12-01T16:36:19.139Z,2.87
2017-12-01T16:38:47.003Z,3.10
2017-12-01T16:41:14.572Z,3.70
2017-12-01T16:43:42.013Z,2.60
2017-12-01T16:46:09.481Z,3.07
2017-12-01T16:48:36.935Z,3.87
2017-12-01T16:51:04.375Z,3.93
2017-12-01T16:53:31.826Z,3.77
2017-12-01T16:55:59.280Z,4.60
2017-12-01T16:58:26.777Z,5.90
2017-12-01T17:00:54.191Z,6.37
2017-12-01T17:03:21.660Z,4.53
2017-12-01T17:05:49.109Z,6.60
2017-12-01T17:08:16.629Z,5.00
2017-12-01T17:10:44.065Z,5.93
2017-12-01T17:13:11.502Z,5.77
2017-12-01T17:15:38.946Z,4.00
2017-12-01T17:18:06.397Z,4.40
2017-12-01T17:20:33.861Z,4.03
2017-12-01T17:23:01.709Z,5.53
2017-12-01T17:25:29.147Z,4.03
2017-12-01T17:27:56.586Z,2.30
2017-12-01T17:30:24.024Z,3.83
2017-12-01T17:32:51.504Z,4.03
2017-12-01T17:35:18.939Z,4.57
2017-12-01T17:37:46.375Z,3.40
2017-12-01T17:40:13.826Z,5.10
2017-12-01T17:42:41.250Z,3.40
2017-12-01T17:45:08.736Z,4.10
2017-12-01T17:47:36.170Z,4.27
2017-12-01T17:50:03.596Z,4.90
2017-12-01T17:52:31.814Z,4.90
2017-12-01T17:54:59.273Z,4.53
2017-12-01T17:57:26.752Z,3.87
2017-12-01T17:59:54.281Z,3.50
2017-12-01T18:02:21.724Z,4.37
2017-12-01T18:04:51.001Z,5.57
2017-12-01T18:07:18.433Z,6.30
2017-12-01T18:09:45.904Z,4.20
2017-12-01T18:12:13.341Z,3.97
2017-12-01T18:14:40.776Z,5.47
2017-12-01T18:17:08.305Z,4.27
2017-12-01T18:19:35.759Z,3.83
2017-12-01T18:22:03.220Z,5.60
2017-12-01T18:24:30.669Z,3.90
2017-12-01T18:26:58.156Z,4.00
2017-12-01T18:29:25.610Z,5.73
2017-12-01T18:31:53.049Z,5.53
2017-12-01T18:34:20.520Z,6.43
2017-12-01T18:36:47.957Z,8.17
2017-12-01T18:39:15.464Z,12.10
2017-12-01T18:41:42.920Z,7.20
2017-12-01T18:44:10.368Z,5.70
2017-12-01T18:46:37.864Z,4.93
2017-12-01T18:49:05.295Z,3.77
2017-12-01T18:51:32.733Z,4.80
2017-12-01T18:54:00.192Z,2.70
2017-12-01T18:56:27.642Z,4.60
2017-12-01T18:58:55.105Z,2.97
2017-12-01T19:01:22.615Z,4.60
2017-12-01T19:03:50.069Z,3.23
2017-12-01T19:06:17.530Z,2.80
2017-12-01T19:08:45.010Z,4.10
2017-12-01T19:11:12.487Z,5.13
2017-12-01T19:13:39.967Z,5.00
2017-12-01T19:16:07.365Z,4.10
2017-12-01T19:18:34.880Z,3.20
2017-12-01T19:21:02.314Z,3.70
2017-12-01T19:23:29.758Z,3.70
2017-12-01T19:25:57.209Z,2.87
2017-12-01T19:28:24.678Z,5.00
2017-12-01T19:30:52.146Z,4.50
2017-12-01T19:33:19.613Z,3.60
2017-12-01T19:35:47.057Z,2.50
2017-12-01T19:38:14.528Z,4.45
2017-12-01T19:40:41.974Z,4.15
2017-12-01T19:43:09.446Z,2.70
2017-12-01T19:45:36.885Z,5.60
2017-12-01T19:48:04.329Z,7.43
2017-12-01T19:50:31.838Z,7.30
2017-12-01T19:52:59.276Z,3.60
2017-12-01T19:55:26.749Z,4.60
2017-12-01T19:57:54.216Z,3.43
2017-12-01T20:00:21.657Z,4.10
2017-12-01T20:02:49.145Z,4.83
2017-12-01T20:05:16.587Z,4.10
2017-12-01T20:07:44.064Z,6.97
2017-12-01T20:10:11.505Z,4.97
2017-12-01T20:12:38.948Z,6.70
2017-12-01T20:15:06.401Z,7.07
2017-12-01T20:17:33.845Z,6.13
2017-12-01T20:20:01.372Z,6.15
2017-12-01T20:22:28.844Z,3.77
2017-12-01T20:24:56.285Z,5.10
2017-12-01T20:27:23.757Z,4.03
2017-12-01T20:29:51.191Z,4.20
2017-12-01T20:32:18.662Z,3.95
2017-12-01T20:34:46.142Z,5.25
2017-12-01T20:37:13.695Z,4.63
2017-12-01T20:39:41.201Z,4.30
2017-12-01T20:42:08.938Z,5.17
2017-12-01T20:44:36.412Z,7.20
2017-12-01T20:47:03.894Z,5.40
2017-12-01T20:49:31.725Z,4.30
2017-12-01T20:51:59.202Z,6.32
2017-12-01T20:54:26.653Z,5.68
2017-12-01T20:56:54.132Z,5.97
2017-12-01T20:59:21.573Z,6.82
2017-12-01T21:01:49.029Z,4.65
2017-12-01T21:04:16.504Z,3.67
2017-12-01T21:06:43.953Z,5.30
2017-12-01T21:09:11.433Z,5.72
2017-12-01T21:11:38.872Z,3.05
2017-12-01T21:14:06.314Z,5.03
2017-12-01T21:16:33.766Z,5.80
2017-12-01T21:19:01.212Z,5.03
2017-12-01T21:21:28.734Z,6.53
2017-12-01T21:23:56.193Z,3.47
2017-12-01T21:26:23.619Z,4.27
2017-12-01T21:28:51.081Z,4.13
2017-12-01T21:31:18.585Z,4.43
2017-12-01T21:33:47.052Z,3.87
2017-12-01T21:36:14.484Z,3.33
2017-12-01T21:38:42.185Z,3.97
2017-12-01T21:41:09.636Z,5.00
2017-12-01T21:43:37.076Z,6.23
2017-12-01T21:46:04.541Z,5.23
2017-12-01T21:48:31.977Z,3.37
2017-12-01T21:50:59.417Z,5.80
2017-12-01T21:53:26.869Z,4.77
2017-12-01T21:55:54.301Z,5.13
2017-12-01T21:58:21.824Z,6.00
2017-12-01T22:00:49.741Z,5.13
2017-12-01T22:03:17.180Z,4.90
2017-12-01T22:05:44.662Z,5.20
2017-12-01T22:08:12.144Z,4.50
2017-12-01T22:10:39.618Z,4.50
2017-12-01T22:13:07.063Z,3.20
2017-12-01T22:15:34.529Z,4.63
2017-12-01T22:18:02.021Z,5.40
2017-12-01T22:20:29.457Z,5.23
2017-12-01T22:22:56.900Z,5.67
2017-12-01T22:25:24.372Z,3.40
2017-12-01T22:27:51.794Z,4.73
2017-12-01T22:30:19.374Z,4.00
2017-12-01T22:32:46.808Z,7.18
2017-12-01T22:35:14.253Z,5.13
2017-12-01T22:37:44.621Z,3.47
2017-12-01T22:40:12.405Z,4.68
2017-12-01T22:42:39.892Z,3.17
2017-12-01T22:45:07.753Z,6.55
2017-12-01T22:47:35.192Z,6.57
2017-12-01T22:50:02.658Z,4.05
2017-12-01T22:52:30.501Z,4.00
2017-12-01T22:54:58.273Z,4.95
2017-12-01T22:57:25.707Z,3.65
2017-12-01T22:59:53.153Z,5.10
2017-12-01T23:02:20.609Z,3.67
2017-12-01T23:04:48.048Z,4.62
2017-12-01T23:07:15.753Z,3.35
2017-12-01T23:09:43.589Z,6.32
2017-12-01T23:12:11.054Z,3.67
2017-12-01T23:14:38.528Z,3.33
2017-12-01T23:17:05.969Z,4.07
2017-12-01T23:19:33.838Z,4.20
2017-12-01T23:22:01.293Z,5.55
2017-12-01T23:24:28.762Z,4.93
2017-12-01T23:26:56.253Z,5.22
2017-12-01T23:29:23.705Z,7.15
2017-12-01T23:31:51.152Z,5.95
2017-12-01T23:34:18.613Z,4.40
2017-12-01T23:36:46.055Z,4.82
2017-12-01T23:39:13.525Z,5.75
2017-12-01T23:41:42.166Z,4.82
2017-12-01T23:44:09.592Z,3.53
2017-12-01T23:46:37.056Z,4.10
2017-12-01T23:49:04.601Z,5.28
2017-12-01T23:51:32.076Z,3.30
2017-12-01T23:53:59.531Z,4.40
2017-12-01T23:56:26.977Z,3.50
2017-12-01T23:58:54.437Z,3.70
